sensor_id;sensor_type;location;lat;lon;timestamp;P1;durP1;ratioP1;P2;durP2;ratioP2
54191;SDS011;40101;53.002;6.488;2023-05-10T00:09:23;11.18;;;9.43;;
54191;SDS011;40101;53.002;6.488;2023-05-10T00:12:51;9.07;;;7.97;;
54191;SDS011;40101;53.002;6.488;2023-05-10T00:16:37;9.95;;;9.05;;
54191;SDS011;40101;53.002;6.488;2023-05-10T00:19:18;11.05;;;9.98;;
54191;SDS011;40101;53.002;6.488;2023-05-10T00:21:44;9.55;;;8.65;;
54191;SDS011;40101;53.002;6.488;2023-05-10T00:24:16;10.98;;;9.90;;
54191;SDS011;40101;53.002;6.488;2023-05-10T00:27:30;12.48;;;8.65;;
54191;SDS011;40101;53.002;6.488;2023-05-10T00:30:09;10.27;;;9.35;;
54191;SDS011;40101;53.002;6.488;2023-05-10T00:56:13;9.52;;;8.52;;
54191;SDS011;40101;53.002;6.488;2023-05-10T01:02:06;11.40;;;9.20;;
54191;SDS011;40101;53.002;6.488;2023-05-10T01:04:50;10.68;;;9.57;;
54191;SDS011;40101;53.002;6.488;2023-05-10T01:08:34;13.43;;;9.98;;
54191;SDS011;40101;53.002;6.488;2023-05-10T01:11:09;12.75;;;10.88;;
54191;SDS011;40101;53.002;6.488;2023-05-10T01:13:40;11.93;;;10.75;;
54191;SDS011;40101;53.002;6.488;2023-05-10T01:16:43;14.48;;;11.57;;
54191;SDS011;40101;53.002;6.488;2023-05-10T01:19:41;13.63;;;10.88;;
54191;SDS011;40101;53.002;6.488;2023-05-10T01:28:28;13.48;;;12.07;;
54191;SDS011;40101;53.002;6.488;2023-05-10T01:37:47;14.80;;;12.48;;
54191;SDS011;40101;53.002;6.488;2023-05-10T01:40:32;15.88;;;12.55;;
54191;SDS011;40101;53.002;6.488;2023-05-10T01:43:14;16.73;;;12.68;;
54191;SDS011;40101;53.002;6.488;2023-05-10T01:48:40;14.88;;;11.82;;
54191;SDS011;40101;53.002;6.488;2023-05-10T01:54:19;13.13;;;11.75;;
54191;SDS011;40101;53.002;6.488;2023-05-10T01:56:50;13.25;;;11.70;;
54191;SDS011;40101;53.002;6.488;2023-05-10T02:00:21;13.30;;;11.50;;
54191;SDS011;40101;53.002;6.488;2023-05-10T02:03:05;13.40;;;10.80;;
54191;SDS011;40101;53.002;6.488;2023-05-10T02:06:12;13.85;;;11.30;;
54191;SDS011;40101;53.002;6.488;2023-05-10T02:09:29;20.60;;;11.63;;
54191;SDS011;40101;53.002;6.488;2023-05-10T02:19:43;12.77;;;11.20;;
54191;SDS011;40101;53.002;6.488;2023-05-10T02:33:02;13.07;;;11.60;;
54191;SDS011;40101;53.002;6.488;2023-05-10T03:41:30;14.77;;;12.18;;
54191;SDS011;40101;53.002;6.488;2023-05-10T03:43:59;14.05;;;11.65;;
54191;SDS011;40101;53.002;6.488;2023-05-10T03:50:12;13.10;;;11.55;;
54191;SDS011;40101;53.002;6.488;2023-05-10T04:29:43;11.05;;;9.38;;
54191;SDS011;40101;53.002;6.488;2023-05-10T04:43:53;10.55;;;9.45;;
54191;SDS011;40101;53.002;6.488;2023-05-10T04:47:16;10.07;;;9.07;;
54191;SDS011;40101;53.002;6.488;2023-05-10T04:54:07;9.50;;;8.60;;
54191;SDS011;40101;53.002;6.488;2023-05-10T06:40:06;3.08;;;2.78;;
54191;SDS011;40101;53.002;6.488;2023-05-10T06:42:39;2.60;;;2.40;;
54191;SDS011;40101;53.002;6.488;2023-05-10T06:45:13;2.65;;;2.40;;
54191;SDS011;40101;53.002;6.488;2023-05-10T06:47:39;1.60;;;1.50;;
54191;SDS011;40101;53.002;6.488;2023-05-10T06:50:19;1.33;;;1.23;;
54191;SDS011;40101;53.002;6.488;2023-05-10T07:19:46;1.45;;;1.35;;
54191;SDS011;40101;53.002;6.488;2023-05-10T07:22:11;1.23;;;1.13;;
54191;SDS011;40101;53.002;6.488;2023-05-10T07:24:37;4.57;;;1.45;;
54191;SDS011;40101;53.002;6.488;2023-05-10T07:27:12;1.52;;;1.42;;
54191;SDS011;40101;53.002;6.488;2023-05-10T07:36:37;1.33;;;1.23;;
54191;SDS011;40101;53.002;6.488;2023-05-10T08:28:27;3.08;;;2.58;;
54191;SDS011;40101;53.002;6.488;2023-05-10T08:30:57;3.83;;;2.22;;
54191;SDS011;40101;53.002;6.488;2023-05-10T08:33:22;2.85;;;2.30;;
54191;SDS011;40101;53.002;6.488;2023-05-10T08:35:50;3.03;;;2.50;;
54191;SDS011;40101;53.002;6.488;2023-05-10T08:38:34;2.63;;;2.42;;
54191;SDS011;40101;53.002;6.488;2023-05-10T08:41:28;3.33;;;2.60;;
54191;SDS011;40101;53.002;6.488;2023-05-10T08:43:56;3.85;;;2.33;;
54191;SDS011;40101;53.002;6.488;2023-05-10T08:46:25;2.20;;;2.00;;
54191;SDS011;40101;53.002;6.488;2023-05-10T08:51:41;3.92;;;2.53;;
54191;SDS011;40101;53.002;6.488;2023-05-10T08:54:12;2.55;;;2.30;;
54191;SDS011;40101;53.002;6.488;2023-05-10T08:56:38;3.70;;;2.35;;
54191;SDS011;40101;53.002;6.488;2023-05-10T08:59:04;2.83;;;2.60;;
54191;SDS011;40101;53.002;6.488;2023-05-10T09:01:30;4.47;;;2.72;;
54191;SDS011;40101;53.002;6.488;2023-05-10T09:03:57;4.05;;;3.35;;
54191;SDS011;40101;53.002;6.488;2023-05-10T09:06:27;3.85;;;3.13;;
54191;SDS011;40101;53.002;6.488;2023-05-10T09:08:53;3.47;;;3.17;;
54191;SDS011;40101;53.002;6.488;2023-05-10T09:11:22;3.58;;;3.03;;
54191;SDS011;40101;53.002;6.488;2023-05-10T09:13:50;6.60;;;3.60;;
54191;SDS011;40101;53.002;6.488;2023-05-10T09:16:17;4.18;;;3.03;;
54191;SDS011;40101;53.002;6.488;2023-05-10T09:18:42;4.35;;;3.92;;
54191;SDS011;40101;53.002;6.488;2023-05-10T09:24:48;4.78;;;4.25;;
54191;SDS011;40101;53.002;6.488;2023-05-10T09:27:37;5.72;;;4.10;;
54191;SDS011;40101;53.002;6.488;2023-05-10T09:40:06;5.45;;;4.30;;
54191;SDS011;40101;53.002;6.488;2023-05-10T09:42:36;6.00;;;4.80;;
54191;SDS011;40101;53.002;6.488;2023-05-10T09:45:05;8.35;;;4.78;;
54191;SDS011;40101;53.002;6.488;2023-05-10T09:51:07;5.30;;;4.50;;
54191;SDS011;40101;53.002;6.488;2023-05-10T09:53:39;5.07;;;4.28;;
54191;SDS011;40101;53.002;6.488;2023-05-10T09:56:08;5.40;;;4.47;;
54191;SDS011;40101;53.002;6.488;2023-05-10T09:59:02;5.47;;;4.97;;
54191;SDS011;40101;53.002;6.488;2023-05-10T10:11:37;6.10;;;4.65;;
54191;SDS011;40101;53.002;6.488;2023-05-10T10:17:49;5.68;;;5.18;;
54191;SDS011;40101;53.002;6.488;2023-05-10T10:35:18;5.00;;;4.53;;
54191;SDS011;40101;53.002;6.488;2023-05-10T10:38:04;6.03;;;4.90;;
54191;SDS011;40101;53.002;6.488;2023-05-10T10:40:33;6.93;;;4.82;;
54191;SDS011;40101;53.002;6.488;2023-05-10T10:51:36;6.00;;;4.18;;
54191;SDS011;40101;53.002;6.488;2023-05-10T10:54:10;5.90;;;4.65;;
54191;SDS011;40101;53.002;6.488;2023-05-10T10:56:36;7.15;;;5.70;;
54191;SDS011;40101;53.002;6.488;2023-05-10T10:59:02;6.13;;;5.20;;
54191;SDS011;40101;53.002;6.488;2023-05-10T11:01:32;6.38;;;5.32;;
54191;SDS011;40101;53.002;6.488;2023-05-10T11:06:32;5.95;;;5.00;;
54191;SDS011;40101;53.002;6.488;2023-05-10T11:08:59;5.38;;;4.88;;
54191;SDS011;40101;53.002;6.488;2023-05-10T11:11:30;6.82;;;5.75;;
54191;SDS011;40101;53.002;6.488;2023-05-10T11:13:56;5.90;;;4.50;;
54191;SDS011;40101;53.002;6.488;2023-05-10T11:16:41;6.32;;;4.57;;
54191;SDS011;40101;53.002;6.488;2023-05-10T11:19:15;6.68;;;4.85;;
54191;SDS011;40101;53.002;6.488;2023-05-10T11:21:49;6.88;;;4.53;;
54191;SDS011;40101;53.002;6.488;2023-05-10T11:24:30;5.40;;;4.90;;
54191;SDS011;40101;53.002;6.488;2023-05-10T11:27:01;7.78;;;5.25;;
54191;SDS011;40101;53.002;6.488;2023-05-10T11:29:28;5.90;;;4.95;;
54191;SDS011;40101;53.002;6.488;2023-05-10T11:31:58;7.28;;;4.93;;
54191;SDS011;40101;53.002;6.488;2023-05-10T11:34:28;5.35;;;4.60;;
54191;SDS011;40101;53.002;6.488;2023-05-10T11:36:56;4.78;;;4.10;;
54191;SDS011;40101;53.002;6.488;2023-05-10T11:39:26;5.15;;;4.65;;
54191;SDS011;40101;53.002;6.488;2023-05-10T11:41:52;5.75;;;4.25;;
54191;SDS011;40101;53.002;6.488;2023-05-10T11:44:18;5.18;;;4.22;;
54191;SDS011;40101;53.002;6.488;2023-05-10T11:46:44;4.80;;;4.32;;
54191;SDS011;40101;53.002;6.488;2023-05-10T11:49:09;8.40;;;4.68;;
54191;SDS011;40101;53.002;6.488;2023-05-10T11:51:36;6.13;;;4.88;;
54191;SDS011;40101;53.002;6.488;2023-05-10T11:54:05;7.80;;;5.68;;
54191;SDS011;40101;53.002;6.488;2023-05-10T11:56:35;8.07;;;5.72;;
54191;SDS011;40101;53.002;6.488;2023-05-10T11:59:05;7.28;;;5.45;;
54191;SDS011;40101;53.002;6.488;2023-05-10T12:01:31;5.95;;;5.35;;
54191;SDS011;40101;53.002;6.488;2023-05-10T12:03:58;5.78;;;5.20;;
54191;SDS011;40101;53.002;6.488;2023-05-10T12:06:26;5.80;;;5.30;;
54191;SDS011;40101;53.002;6.488;2023-05-10T12:08:53;6.05;;;5.45;;
54191;SDS011;40101;53.002;6.488;2023-05-10T12:11:19;6.53;;;5.88;;
54191;SDS011;40101;53.002;6.488;2023-05-10T12:13:47;8.30;;;5.88;;
54191;SDS011;40101;53.002;6.488;2023-05-10T12:16:15;6.20;;;5.60;;
54191;SDS011;40101;53.002;6.488;2023-05-10T12:18:42;5.32;;;4.88;;
54191;SDS011;40101;53.002;6.488;2023-05-10T12:21:12;7.93;;;5.43;;
54191;SDS011;40101;53.002;6.488;2023-05-10T12:23:38;5.68;;;5.10;;
54191;SDS011;40101;53.002;6.488;2023-05-10T12:26:04;8.60;;;6.53;;
54191;SDS011;40101;53.002;6.488;2023-05-10T12:28:31;6.97;;;6.18;;
54191;SDS011;40101;53.002;6.488;2023-05-10T12:30:58;8.45;;;6.38;;
54191;SDS011;40101;53.002;6.488;2023-05-10T12:33:25;10.10;;;6.07;;
54191;SDS011;40101;53.002;6.488;2023-05-10T12:35:51;7.53;;;5.78;;
54191;SDS011;40101;53.002;6.488;2023-05-10T12:38:25;8.55;;;6.00;;
54191;SDS011;40101;53.002;6.488;2023-05-10T12:41:02;8.25;;;6.20;;
54191;SDS011;40101;53.002;6.488;2023-05-10T12:43:30;11.65;;;6.57;;
54191;SDS011;40101;53.002;6.488;2023-05-10T12:45:56;9.25;;;6.15;;
54191;SDS011;40101;53.002;6.488;2023-05-10T12:48:22;6.55;;;5.70;;
54191;SDS011;40101;53.002;6.488;2023-05-10T12:50:48;10.55;;;5.80;;
54191;SDS011;40101;53.002;6.488;2023-05-10T12:53:17;10.00;;;6.53;;
54191;SDS011;40101;53.002;6.488;2023-05-10T12:55:42;7.95;;;6.05;;
54191;SDS011;40101;53.002;6.488;2023-05-10T12:58:09;8.15;;;5.82;;
54191;SDS011;40101;53.002;6.488;2023-05-10T13:00:35;7.18;;;5.85;;
54191;SDS011;40101;53.002;6.488;2023-05-10T13:03:03;8.80;;;6.50;;
54191;SDS011;40101;53.002;6.488;2023-05-10T13:05:31;8.73;;;6.07;;
54191;SDS011;40101;53.002;6.488;2023-05-10T13:08:02;9.25;;;7.63;;
54191;SDS011;40101;53.002;6.488;2023-05-10T13:10:30;9.65;;;6.78;;
54191;SDS011;40101;53.002;6.488;2023-05-10T13:12:59;8.82;;;6.43;;
54191;SDS011;40101;53.002;6.488;2023-05-10T13:15:25;7.63;;;6.55;;
54191;SDS011;40101;53.002;6.488;2023-05-10T13:17:52;9.30;;;7.13;;
54191;SDS011;40101;53.002;6.488;2023-05-10T13:20:18;8.98;;;6.35;;
54191;SDS011;40101;53.002;6.488;2023-05-10T13:22:44;7.78;;;6.32;;
54191;SDS011;40101;53.002;6.488;2023-05-10T13:25:10;8.45;;;7.50;;
54191;SDS011;40101;53.002;6.488;2023-05-10T13:27:39;8.18;;;7.32;;
54191;SDS011;40101;53.002;6.488;2023-05-10T13:30:05;9.18;;;7.38;;
54191;SDS011;40101;53.002;6.488;2023-05-10T13:32:32;9.07;;;7.30;;
54191;SDS011;40101;53.002;6.488;2023-05-10T13:34:58;8.90;;;7.20;;
54191;SDS011;40101;53.002;6.488;2023-05-10T13:43:41;10.25;;;7.97;;
54191;SDS011;40101;53.002;6.488;2023-05-10T13:46:06;9.00;;;8.00;;
54191;SDS011;40101;53.002;6.488;2023-05-10T13:48:35;7.45;;;6.72;;
54191;SDS011;40101;53.002;6.488;2023-05-10T13:51:07;8.13;;;6.20;;
54191;SDS011;40101;53.002;6.488;2023-05-10T13:53:40;7.78;;;6.82;;
54191;SDS011;40101;53.002;6.488;2023-05-10T13:56:12;8.48;;;7.20;;
54191;SDS011;40101;53.002;6.488;2023-05-10T13:58:38;8.52;;;7.63;;
54191;SDS011;40101;53.002;6.488;2023-05-10T14:01:04;7.72;;;6.75;;
54191;SDS011;40101;53.002;6.488;2023-05-10T14:07:01;9.07;;;6.90;;
54191;SDS011;40101;53.002;6.488;2023-05-10T14:09:44;10.65;;;6.78;;
54191;SDS011;40101;53.002;6.488;2023-05-10T14:12:10;9.98;;;6.53;;
54191;SDS011;40101;53.002;6.488;2023-05-10T14:14:36;6.70;;;5.90;;
54191;SDS011;40101;53.002;6.488;2023-05-10T14:17:02;7.13;;;5.70;;
54191;SDS011;40101;53.002;6.488;2023-05-10T14:19:28;12.57;;;6.03;;
54191;SDS011;40101;53.002;6.488;2023-05-10T14:22:03;7.97;;;5.70;;
54191;SDS011;40101;53.002;6.488;2023-05-10T14:24:31;9.95;;;6.28;;
54191;SDS011;40101;53.002;6.488;2023-05-10T14:27:06;6.75;;;5.82;;
54191;SDS011;40101;53.002;6.488;2023-05-10T14:29:52;8.48;;;6.82;;
54191;SDS011;40101;53.002;6.488;2023-05-10T14:35:45;8.73;;;6.07;;
54191;SDS011;40101;53.002;6.488;2023-05-10T14:41:57;5.97;;;5.38;;
54191;SDS011;40101;53.002;6.488;2023-05-10T14:44:23;5.90;;;4.82;;
54191;SDS011;40101;53.002;6.488;2023-05-10T14:46:50;5.30;;;4.18;;
54191;SDS011;40101;53.002;6.488;2023-05-10T14:51:58;6.53;;;4.50;;
54191;SDS011;40101;53.002;6.488;2023-05-10T14:58:56;4.50;;;3.75;;
54191;SDS011;40101;53.002;6.488;2023-05-10T15:31:57;4.95;;;3.70;;
54191;SDS011;40101;53.002;6.488;2023-05-10T15:34:23;5.15;;;4.28;;
54191;SDS011;40101;53.002;6.488;2023-05-10T15:36:49;8.18;;;4.10;;
54191;SDS011;40101;53.002;6.488;2023-05-10T15:39:15;5.00;;;4.32;;
54191;SDS011;40101;53.002;6.488;2023-05-10T15:41:40;7.75;;;4.45;;
54191;SDS011;40101;53.002;6.488;2023-05-10T15:44:07;4.55;;;3.95;;
54191;SDS011;40101;53.002;6.488;2023-05-10T15:46:35;4.53;;;4.13;;
54191;SDS011;40101;53.002;6.488;2023-05-10T15:49:02;8.80;;;4.32;;
54191;SDS011;40101;53.002;6.488;2023-05-10T15:51:28;4.22;;;3.83;;
54191;SDS011;40101;53.002;6.488;2023-05-10T15:53:54;5.65;;;3.88;;
54191;SDS011;40101;53.002;6.488;2023-05-10T15:56:28;4.15;;;3.60;;
54191;SDS011;40101;53.002;6.488;2023-05-10T15:58:54;4.78;;;3.70;;
54191;SDS011;40101;53.002;6.488;2023-05-10T16:01:20;7.45;;;5.47;;
54191;SDS011;40101;53.002;6.488;2023-05-10T16:03:46;5.93;;;4.82;;
54191;SDS011;40101;53.002;6.488;2023-05-10T16:06:12;8.73;;;4.68;;
54191;SDS011;40101;53.002;6.488;2023-05-10T16:08:37;7.13;;;5.47;;
54191;SDS011;40101;53.002;6.488;2023-05-10T16:11:06;5.85;;;4.63;;
54191;SDS011;40101;53.002;6.488;2023-05-10T16:13:32;6.00;;;4.90;;
54191;SDS011;40101;53.002;6.488;2023-05-10T16:16:01;7.43;;;5.05;;
54191;SDS011;40101;53.002;6.488;2023-05-10T16:19:07;8.45;;;6.15;;
54191;SDS011;40101;53.002;6.488;2023-05-10T16:21:33;11.10;;;5.35;;
54191;SDS011;40101;53.002;6.488;2023-05-10T16:23:59;5.38;;;4.47;;
54191;SDS011;40101;53.002;6.488;2023-05-10T16:26:25;6.90;;;5.35;;
54191;SDS011;40101;53.002;6.488;2023-05-10T16:29:09;9.70;;;5.53;;
54191;SDS011;40101;53.002;6.488;2023-05-10T16:31:35;6.60;;;5.07;;
54191;SDS011;40101;53.002;6.488;2023-05-10T16:34:01;8.48;;;4.50;;
54191;SDS011;40101;53.002;6.488;2023-05-10T16:36:33;7.65;;;4.70;;
54191;SDS011;40101;53.002;6.488;2023-05-10T16:38:59;6.88;;;4.97;;
54191;SDS011;40101;53.002;6.488;2023-05-10T16:41:25;5.50;;;4.95;;
54191;SDS011;40101;53.002;6.488;2023-05-10T16:43:54;6.65;;;5.93;;
54191;SDS011;40101;53.002;6.488;2023-05-10T16:46:22;7.95;;;5.20;;
54191;SDS011;40101;53.002;6.488;2023-05-10T16:48:51;9.02;;;6.50;;
54191;SDS011;40101;53.002;6.488;2023-05-10T16:56:33;6.47;;;5.47;;
54191;SDS011;40101;53.002;6.488;2023-05-10T16:59:27;6.60;;;5.10;;
54191;SDS011;40101;53.002;6.488;2023-05-10T17:02:23;7.35;;;5.40;;
54191;SDS011;40101;53.002;6.488;2023-05-10T17:09:30;6.65;;;5.90;;
54191;SDS011;40101;53.002;6.488;2023-05-10T17:19:02;6.22;;;5.35;;
54191;SDS011;40101;53.002;6.488;2023-05-10T17:38:34;5.43;;;4.93;;
54191;SDS011;40101;53.002;6.488;2023-05-10T17:41:01;5.57;;;4.10;;
54191;SDS011;40101;53.002;6.488;2023-05-10T17:43:27;13.20;;;4.78;;
54191;SDS011;40101;53.002;6.488;2023-05-10T17:46:05;4.15;;;3.75;;
54191;SDS011;40101;53.002;6.488;2023-05-10T17:51:23;5.07;;;4.57;;
54191;SDS011;40101;53.002;6.488;2023-05-10T17:53:52;5.30;;;4.80;;
54191;SDS011;40101;53.002;6.488;2023-05-10T17:56:18;5.07;;;4.10;;
54191;SDS011;40101;53.002;6.488;2023-05-10T17:58:46;5.18;;;4.53;;
54191;SDS011;40101;53.002;6.488;2023-05-10T18:01:19;5.07;;;4.35;;
54191;SDS011;40101;53.002;6.488;2023-05-10T18:03:48;5.85;;;4.47;;
54191;SDS011;40101;53.002;6.488;2023-05-10T18:06:24;5.68;;;5.18;;
54191;SDS011;40101;53.002;6.488;2023-05-10T18:08:50;5.47;;;4.97;;
54191;SDS011;40101;53.002;6.488;2023-05-10T18:11:34;5.63;;;5.03;;
54191;SDS011;40101;53.002;6.488;2023-05-10T18:14:04;5.95;;;5.38;;
54191;SDS011;40101;53.002;6.488;2023-05-10T18:16:38;6.32;;;5.00;;
54191;SDS011;40101;53.002;6.488;2023-05-10T18:19:04;6.70;;;5.15;;
54191;SDS011;40101;53.002;6.488;2023-05-10T18:21:30;6.25;;;5.25;;
54191;SDS011;40101;53.002;6.488;2023-05-10T18:23:56;6.97;;;5.72;;
54191;SDS011;40101;53.002;6.488;2023-05-10T18:26:22;5.55;;;5.05;;
54191;SDS011;40101;53.002;6.488;2023-05-10T18:28:48;8.50;;;4.95;;
54191;SDS011;40101;53.002;6.488;2023-05-10T18:31:22;6.45;;;5.38;;
54191;SDS011;40101;53.002;6.488;2023-05-10T18:33:48;6.57;;;5.97;;
54191;SDS011;40101;53.002;6.488;2023-05-10T18:36:14;7.70;;;5.63;;
54191;SDS011;40101;53.002;6.488;2023-05-10T18:38:40;5.70;;;5.18;;
54191;SDS011;40101;53.002;6.488;2023-05-10T18:41:09;9.02;;;5.55;;
54191;SDS011;40101;53.002;6.488;2023-05-10T18:43:51;7.13;;;5.90;;
54191;SDS011;40101;53.002;6.488;2023-05-10T18:46:18;5.70;;;5.20;;
54191;SDS011;40101;53.002;6.488;2023-05-10T18:48:53;6.47;;;5.47;;
54191;SDS011;40101;53.002;6.488;2023-05-10T18:51:26;8.45;;;5.93;;
54191;SDS011;40101;53.002;6.488;2023-05-10T18:56:59;8.95;;;5.82;;
54191;SDS011;40101;53.002;6.488;2023-05-10T18:59:35;9.27;;;6.00;;
54191;SDS011;40101;53.002;6.488;2023-05-10T19:05:01;6.38;;;5.78;;
54191;SDS011;40101;53.002;6.488;2023-05-10T19:44:29;13.30;;;9.45;;
54191;SDS011;40101;53.002;6.488;2023-05-10T19:48:25;10.90;;;8.43;;
54191;SDS011;40101;53.002;6.488;2023-05-10T19:50:54;10.90;;;8.27;;
54191;SDS011;40101;53.002;6.488;2023-05-10T19:53:24;9.55;;;8.52;;
54191;SDS011;40101;53.002;6.488;2023-05-10T19:55:53;12.95;;;9.23;;
54191;SDS011;40101;53.002;6.488;2023-05-10T19:58:22;9.73;;;8.73;;
54191;SDS011;40101;53.002;6.488;2023-05-10T20:00:49;13.32;;;9.48;;
54191;SDS011;40101;53.002;6.488;2023-05-10T20:03:31;10.25;;;8.68;;
54191;SDS011;40101;53.002;6.488;2023-05-10T20:05:57;9.40;;;8.50;;
54191;SDS011;40101;53.002;6.488;2023-05-10T20:08:23;9.98;;;8.00;;
54191;SDS011;40101;53.002;6.488;2023-05-10T20:10:56;10.30;;;7.93;;
54191;SDS011;40101;53.002;6.488;2023-05-10T20:13:23;9.25;;;8.30;;
54191;SDS011;40101;53.002;6.488;2023-05-10T20:15:49;10.75;;;8.85;;
54191;SDS011;40101;53.002;6.488;2023-05-10T20:18:19;10.43;;;8.48;;
54191;SDS011;40101;53.002;6.488;2023-05-10T20:20:44;11.15;;;8.95;;
54191;SDS011;40101;53.002;6.488;2023-05-10T20:23:10;9.88;;;8.88;;
54191;SDS011;40101;53.002;6.488;2023-05-10T20:25:36;9.90;;;7.70;;
54191;SDS011;40101;53.002;6.488;2023-05-10T20:28:19;8.82;;;7.93;;
54191;SDS011;40101;53.002;6.488;2023-05-10T20:34:08;8.45;;;7.65;;
54191;SDS011;40101;53.002;6.488;2023-05-10T20:36:43;16.27;;;9.70;;
54191;SDS011;40101;53.002;6.488;2023-05-10T20:39:09;9.35;;;8.27;;
54191;SDS011;40101;53.002;6.488;2023-05-10T20:44:50;14.45;;;8.52;;
54191;SDS011;40101;53.002;6.488;2023-05-10T20:48:00;10.68;;;7.70;;
54191;SDS011;40101;53.002;6.488;2023-05-10T20:53:42;9.32;;;8.32;;
54191;SDS011;40101;53.002;6.488;2023-05-10T21:00:28;9.82;;;7.43;;
54191;SDS011;40101;53.002;6.488;2023-05-10T21:03:12;10.35;;;8.45;;
54191;SDS011;40101;53.002;6.488;2023-05-10T21:06:00;7.63;;;6.85;;
54191;SDS011;40101;53.002;6.488;2023-05-10T21:08:29;10.07;;;8.82;;
54191;SDS011;40101;53.002;6.488;2023-05-10T21:10:55;10.63;;;8.15;;
54191;SDS011;40101;53.002;6.488;2023-05-10T21:13:21;9.20;;;8.30;;
54191;SDS011;40101;53.002;6.488;2023-05-10T21:15:49;11.02;;;8.15;;
54191;SDS011;40101;53.002;6.488;2023-05-10T21:18:15;9.40;;;8.50;;
54191;SDS011;40101;53.002;6.488;2023-05-10T21:20:53;10.57;;;7.68;;
54191;SDS011;40101;53.002;6.488;2023-05-10T21:23:19;12.10;;;8.20;;
54191;SDS011;40101;53.002;6.488;2023-05-10T21:25:54;9.20;;;8.27;;
54191;SDS011;40101;53.002;6.488;2023-05-10T21:31:31;8.98;;;8.07;;
54191;SDS011;40101;53.002;6.488;2023-05-10T21:37:06;10.60;;;7.97;;
54191;SDS011;40101;53.002;6.488;2023-05-10T21:39:37;8.95;;;8.07;;
54191;SDS011;40101;53.002;6.488;2023-05-10T21:42:34;10.90;;;8.70;;
54191;SDS011;40101;53.002;6.488;2023-05-10T21:45:23;8.80;;;7.90;;
54191;SDS011;40101;53.002;6.488;2023-05-10T21:48:08;9.20;;;8.30;;
54191;SDS011;40101;53.002;6.488;2023-05-10T21:50:36;10.75;;;8.25;;
54191;SDS011;40101;53.002;6.488;2023-05-10T21:53:02;14.57;;;9.07;;
54191;SDS011;40101;53.002;6.488;2023-05-10T21:55:28;12.30;;;8.85;;
54191;SDS011;40101;53.002;6.488;2023-05-10T21:57:54;9.23;;;8.27;;
54191;SDS011;40101;53.002;6.488;2023-05-10T22:00:19;9.68;;;8.63;;
54191;SDS011;40101;53.002;6.488;2023-05-10T22:02:45;12.85;;;9.73;;
54191;SDS011;40101;53.002;6.488;2023-05-10T22:05:11;8.93;;;8.07;;
54191;SDS011;40101;53.002;6.488;2023-05-10T22:07:37;11.82;;;8.98;;
54191;SDS011;40101;53.002;6.488;2023-05-10T22:10:03;8.48;;;7.68;;
54191;SDS011;40101;53.002;6.488;2023-05-10T22:12:30;9.95;;;8.27;;
54191;SDS011;40101;53.002;6.488;2023-05-10T22:14:59;9.75;;;8.70;;
54191;SDS011;40101;53.002;6.488;2023-05-10T22:17:25;9.93;;;8.70;;
54191;SDS011;40101;53.002;6.488;2023-05-10T22:19:53;10.30;;;8.88;;
54191;SDS011;40101;53.002;6.488;2023-05-10T22:22:20;8.77;;;7.88;;
54191;SDS011;40101;53.002;6.488;2023-05-10T22:24:46;9.20;;;7.88;;
54191;SDS011;40101;53.002;6.488;2023-05-10T22:27:12;10.68;;;8.35;;
54191;SDS011;40101;53.002;6.488;2023-05-10T22:29:38;10.80;;;9.68;;
54191;SDS011;40101;53.002;6.488;2023-05-10T22:32:04;9.85;;;8.93;;
54191;SDS011;40101;53.002;6.488;2023-05-10T22:34:49;10.15;;;9.02;;
54191;SDS011;40101;53.002;6.488;2023-05-10T22:37:17;9.90;;;8.90;;
54191;SDS011;40101;53.002;6.488;2023-05-10T22:39:47;10.82;;;9.00;;
54191;SDS011;40101;53.002;6.488;2023-05-10T22:42:13;9.82;;;8.93;;
54191;SDS011;40101;53.002;6.488;2023-05-10T22:44:40;14.05;;;9.82;;
54191;SDS011;40101;53.002;6.488;2023-05-10T22:47:06;11.00;;;8.52;;
54191;SDS011;40101;53.002;6.488;2023-05-10T22:49:40;11.93;;;9.18;;
54191;SDS011;40101;53.002;6.488;2023-05-10T22:52:06;9.55;;;8.50;;
54191;SDS011;40101;53.002;6.488;2023-05-10T22:54:33;10.38;;;8.07;;
54191;SDS011;40101;53.002;6.488;2023-05-10T22:57:02;12.60;;;8.27;;
54191;SDS011;40101;53.002;6.488;2023-05-10T22:59:40;9.38;;;8.50;;
54191;SDS011;40101;53.002;6.488;2023-05-10T23:02:10;9.77;;;8.80;;
54191;SDS011;40101;53.002;6.488;2023-05-10T23:04:41;12.82;;;9.35;;
54191;SDS011;40101;53.002;6.488;2023-05-10T23:10:04;10.30;;;9.25;;
54191;SDS011;40101;53.002;6.488;2023-05-10T23:12:33;14.45;;;10.10;;
54191;SDS011;40101;53.002;6.488;2023-05-10T23:14:59;10.93;;;9.75;;
54191;SDS011;40101;53.002;6.488;2023-05-10T23:17:27;13.38;;;10.50;;
54191;SDS011;40101;53.002;6.488;2023-05-10T23:19:52;11.73;;;9.95;;
54191;SDS011;40101;53.002;6.488;2023-05-10T23:22:18;12.82;;;10.25;;
54191;SDS011;40101;53.002;6.488;2023-05-10T23:24:44;12.05;;;9.77;;
54191;SDS011;40101;53.002;6.488;2023-05-10T23:27:09;11.18;;;9.98;;
54191;SDS011;40101;53.002;6.488;2023-05-10T23:29:35;12.43;;;10.57;;
54191;SDS011;40101;53.002;6.488;2023-05-10T23:32:05;11.73;;;10.55;;
54191;SDS011;40101;53.002;6.488;2023-05-10T23:34:34;11.27;;;9.65;;
54191;SDS011;40101;53.002;6.488;2023-05-10T23:36:59;13.63;;;10.65;;
54191;SDS011;40101;53.002;6.488;2023-05-10T23:39:25;11.65;;;10.45;;
54191;SDS011;40101;53.002;6.488;2023-05-10T23:41:51;13.30;;;11.15;;
54191;SDS011;40101;53.002;6.488;2023-05-10T23:44:17;12.43;;;10.40;;
54191;SDS011;40101;53.002;6.488;2023-05-10T23:46:43;14.70;;;11.63;;
54191;SDS011;40101;53.002;6.488;2023-05-10T23:49:08;12.77;;;11.45;;
54191;SDS011;40101;53.002;6.488;2023-05-10T23:51:34;15.18;;;12.52;;
54191;SDS011;40101;53.002;6.488;2023-05-10T23:54:00;13.57;;;11.98;;
54191;SDS011;40101;53.002;6.488;2023-05-10T23:56:26;14.25;;;12.13;;
54191;SDS011;40101;53.002;6.488;2023-05-10T23:58:52;14.65;;;12.18;;
